Aviation Digital Data Service (ADDS)

Output produced by METARs form (1827 UTC 16 August 2018)
found at http://www.aviationweather.gov/adds/metars/
 
TAF SLCO 161600Z 1618/1718 20006KT 9999 FEW023 SCT080 TX27/1620Z TN18 /1710Z 
     BECMG 1623/1701 00000KT FEW015
       
TAF SLCB 161600Z 1618/1718 02010KT 9999 FEW030 TX24/1619Z TN05/1711Z 
     TEMPO 1623/1701 14012KT 
     BECMG 1703/1705 00000KT
       
TAF SLLP 161600Z 1618/1718 26010KT 9999 FEW020 TX15/1620Z TNM04/1710Z 
     TEMPO 1619/1623 13010KT FEW025CB 
     BECMG 1700/1702 06006KT 
     BECMG 1704/1707 3000E VCFG 
     BECMG 1711/1713 9999 NSW 
     BECMG 1715/1717 13010KT
       
TAF SLPS 161600Z 1618/1718 24004KT 9999 NSC TX29/1619Z TN12/1710Z 
     BECMG 1623/1701 00000KT 
     BECMG 1713/1715 09008KT
       
TAF SLET 161600Z 1618/1718 15010KT 9000 NSC TX27/1619Z TN13/1710Z 
     BECMG 1623/1701 VRB02KT 
     BECMG 1714/1716 33005KT FEW020
       
TAF SLVR 161600Z 1618/1718 15013KT 9000 NSC TX27/1619Z TN13/1710Z 
     BECMG 1623/1701 VRB02KT 
     BECMG 1714/1716 34005KT FEW020
       
TAF SLTJ 161600Z 1618/1718 14015KT 9999 NSC TX23/1619Z TN03/1711Z 
     BECMG 1623/1701 00000KT
       
TAF SLTR 161600Z 1618/1718 14006KT 9999 FEW023 TX28/1620Z TN19/1710Z 
     BECMG 1623/1701 00000KT FEW015